Time;durP1;ratioP1;P1;durP2;ratioP2;P2;SDS_P1;SDS_P2;PMS_P1;PMS_P2;Temp;Humidity;BMP_temperature;BMP_pressure;BME280_temperature;BME280_humidity;BME280_pressure;Samples;Min_cycle;Max_cycle;Signal;HPM_P1;HPM_P2
2021/08/09 00:03:51;;;;;;;;;30.33;27.33;;;;;;;;8676129;41;10780;-59
2021/08/09 00:09:54;;;;;;;;;28.00;26.00;;;;;;;;8674400;41;10783;-60
2021/08/09 00:15:57;;;;;;;;;23.75;19.00;;;;;;;;8674234;41;10890;-58
2021/08/09 00:22:00;;;;;;;;;19.25;17.25;;;;;;;;8674615;41;10980;-59
2021/08/09 00:28:02;;;;;;;;;18.25;18.25;;;;;;;;8675823;41;10977;-59
2021/08/09 00:34:04;;;;;;;;;19.33;19.33;;;;;;;;8678287;41;10750;-58
2021/08/09 00:40:08;;;;;;;;;18.25;18.25;;;;;;;;8676998;41;10916;-58
2021/08/09 00:46:10;;;;;;;;;23.25;21.50;;;;;;;;8678477;41;10952;-58
2021/08/09 00:52:17;;;;;;;;;19.00;16.25;;;;;;;;8676369;41;11154;-60
2021/08/09 00:58:20;;;;;;;;;21.75;19.50;;;;;;;;8677130;41;11071;-59
2021/08/09 01:04:25;;;;;;;;;14.67;14.33;;;;;;;;8675992;41;10125;-59
2021/08/09 01:11:10;;;;;;;;;24.33;21.00;;;;;;;;8676805;41;10805;-58
2021/08/09 01:17:27;;;;;;;;;24.67;24.67;;;;;;;;8675133;41;10560;-59
2021/08/09 01:23:48;;;;;;;;;22.33;19.33;;;;;;;;8675862;41;10225;-59
2021/08/09 01:29:51;;;;;;;;;29.67;26.00;;;;;;;;8675784;41;10528;-61
2021/08/09 01:35:56;;;;;;;;;24.00;24.00;;;;;;;;8675715;41;10620;-60
2021/08/09 01:42:00;;;;;;;;;22.00;20.00;;;;;;;;8675294;41;10079;-59
2021/08/09 01:48:05;;;;;;;;;25.67;25.67;;;;;;;;8675596;41;10361;-59
2021/08/09 01:54:13;;;;;;;;;21.00;19.67;;;;;;;;8675312;41;10324;-59
2021/08/09 02:00:17;;;;;;;;;26.33;23.33;;;;;;;;8675502;41;10343;-57
2021/08/09 02:06:22;;;;;;;;;25.33;25.33;;;;;;;;8676191;41;10269;-60
2021/08/09 02:12:24;;;;;;;;;25.00;23.67;;;;;;;;8676321;41;10267;-58
2021/08/09 02:18:49;;;;;;;;;27.00;24.67;;;;;;;;8675409;41;10171;-60
2021/08/09 02:25:06;;;;;;;;;27.33;23.67;;;;;;;;8674931;41;10242;-59
2021/08/09 02:31:11;;;;;;;;;27.00;24.00;;;;;;;;8675171;41;10130;-59
2021/08/09 02:37:14;;;;;;;;;23.00;23.00;;;;;;;;8675700;41;10837;-58
2021/08/09 02:43:18;;;;;;;;;22.67;21.33;;;;;;;;8674142;41;10903;-59
2021/08/09 02:49:27;;;;;;;;;28.00;24.00;;;;;;;;8675351;41;10852;-59
2021/08/09 02:55:31;;;;;;;;;26.67;25.33;;;;;;;;8675480;41;10336;-58
2021/08/09 03:01:35;;;;;;;;;24.67;24.67;;;;;;;;8676235;41;10160;-60
2021/08/09 03:07:38;;;;;;;;;21.00;19.33;;;;;;;;8674649;41;10151;-59
2021/08/09 03:13:48;;;;;;;;;27.00;24.33;;;;;;;;8673906;41;10381;-60
2021/08/09 03:19:51;;;;;;;;;24.33;23.67;;;;;;;;8676399;41;10154;-58
2021/08/09 03:25:54;;;;;;;;;22.33;22.33;;;;;;;;8676144;41;10945;-60
2021/08/09 03:31:56;;;;;;;;;24.33;24.00;;;;;;;;8674936;41;10090;-59
2021/08/09 03:37:59;;;;;;;;;23.33;22.33;;;;;;;;8673824;41;10310;-59
2021/08/09 03:44:01;;;;;;;;;22.67;22.67;;;;;;;;8673128;41;10143;-60
2021/08/09 03:50:04;;;;;;;;;18.00;17.33;;;;;;;;8674307;41;10347;-60
2021/08/09 03:56:07;;;;;;;;;24.33;23.67;;;;;;;;8673300;41;10182;-59
2021/08/09 04:02:14;;;;;;;;;23.00;22.67;;;;;;;;9733796;23;10551;-63
2021/08/09 04:08:16;;;;;;;;;23.67;21.67;;;;;;;;8739813;40;10774;-64
2021/08/09 04:14:22;;;;;;;;;23.00;22.00;;;;;;;;8742874;40;10205;-64
2021/08/09 04:20:25;;;;;;;;;25.00;22.33;;;;;;;;8743977;40;9988;-64
2021/08/09 04:26:27;;;;;;;;;22.00;22.00;;;;;;;;8741990;40;10031;-64
2021/08/09 04:32:40;;;;;;;;;24.33;21.33;;;;;;;;8751571;40;10198;-63
2021/08/09 04:38:44;;;;;;;;;25.33;24.00;;;;;;;;8743476;40;9899;-64
2021/08/09 04:44:47;;;;;;;;;24.00;20.33;;;;;;;;8741449;40;9909;-65
2021/08/09 04:50:49;;;;;;;;;28.67;24.67;;;;;;;;8742894;40;9920;-65
2021/08/09 04:56:54;;;;;;;;;24.00;22.00;;;;;;;;8750663;40;10479;-64
2021/08/09 05:02:58;;;;;;;;;26.00;26.00;;;;;;;;8742430;40;9821;-63
2021/08/09 05:09:00;;;;;;;;;26.00;25.67;;;;;;;;8742356;40;10224;-64
2021/08/09 05:15:05;;;;;;;;;25.67;24.00;;;;;;;;8739944;40;10053;-64
2021/08/09 05:21:07;;;;;;;;;21.50;19.50;;;;;;;;8734656;40;10914;-62
2021/08/09 05:27:10;;;;;;;;;28.33;26.67;;;;;;;;8734281;40;10565;-62
2021/08/09 05:33:12;;;;;;;;;19.33;19.33;;;;;;;;8742039;40;10363;-63
2021/08/09 05:39:14;;;;;;;;;19.50;18.25;;;;;;;;8757698;40;10720;-63
2021/08/09 05:45:17;;;;;;;;;25.25;24.75;;;;;;;;8741109;40;10642;-61
2021/08/09 05:51:19;;;;;;;;;26.00;25.25;;;;;;;;8742054;40;11421;-62
2021/08/09 05:57:22;;;;;;;;;25.25;22.50;;;;;;;;8740857;40;11269;-62
2021/08/09 06:03:25;;;;;;;;;24.00;20.75;;;;;;;;8741163;40;10857;-61
2021/08/09 06:09:34;;;;;;;;;30.25;30.25;;;;;;;;8741661;40;10822;-62
2021/08/09 06:15:37;;;;;;;;;23.75;22.25;;;;;;;;8728457;40;10735;-63
2021/08/09 06:21:40;;;;;;;;;27.50;23.75;;;;;;;;8733012;40;10663;-63
2021/08/09 06:27:45;;;;;;;;;26.00;23.75;;;;;;;;8714839;40;10721;-62
2021/08/09 06:33:48;;;;;;;;;25.50;23.75;;;;;;;;8730051;40;10664;-63
2021/08/09 06:39:54;;;;;;;;;25.00;21.50;;;;;;;;8738222;40;10616;-62
2021/08/09 06:45:56;;;;;;;;;21.50;18.25;;;;;;;;8722951;40;10487;-62
2021/08/09 06:51:59;;;;;;;;;12.25;12.25;;;;;;;;8744422;40;10586;-63
2021/08/09 06:58:01;;;;;;;;;28.50;27.50;;;;;;;;8726803;40;10484;-62
2021/08/09 07:04:04;;;;;;;;;26.00;24.00;;;;;;;;8729574;40;10395;-63
2021/08/09 07:10:06;;;;;;;;;28.25;26.50;;;;;;;;8731648;40;10423;-63
2021/08/09 07:16:13;;;;;;;;;26.50;22.75;;;;;;;;8733459;40;11013;-62
2021/08/09 07:22:17;;;;;;;;;23.25;22.00;;;;;;;;8737486;40;10627;-62
2021/08/09 07:28:19;;;;;;;;;23.50;23.50;;;;;;;;8739292;40;10641;-62
2021/08/09 07:34:22;;;;;;;;;23.25;22.50;;;;;;;;8733948;40;10314;-63
2021/08/09 07:40:25;;;;;;;;;23.50;21.25;;;;;;;;8740956;40;10364;-63
2021/08/09 07:46:33;;;;;;;;;18.75;18.50;;;;;;;;8729112;40;10482;-63
2021/08/09 07:52:35;;;;;;;;;20.00;18.50;;;;;;;;8729162;40;10530;-64
2021/08/09 07:58:38;;;;;;;;;26.00;19.50;;;;;;;;8722268;40;11039;-63
2021/08/09 08:04:43;;;;;;;;;20.50;19.50;;;;;;;;8730120;40;10949;-63
2021/08/09 08:10:45;;;;;;;;;20.75;19.00;;;;;;;;8731665;40;11707;-64
2021/08/09 08:16:48;;;;;;;;;21.25;19.25;;;;;;;;8742897;40;10560;-62
2021/08/09 08:22:51;;;;;;;;;22.50;22.50;;;;;;;;8733757;40;10563;-63
2021/08/09 08:28:54;;;;;;;;;22.00;20.00;;;;;;;;8712043;40;10613;-64
2021/08/09 08:34:56;;;;;;;;;21.75;19.00;;;;;;;;8727343;40;10540;-63
2021/08/09 08:41:00;;;;;;;;;20.00;17.50;;;;;;;;8726697;40;10906;-63
2021/08/09 08:47:03;;;;;;;;;18.50;18.50;;;;;;;;8731251;40;11038;-63
2021/08/09 08:53:06;;;;;;;;;23.50;19.00;;;;;;;;8735298;40;10476;-63
2021/08/09 08:59:17;;;;;;;;;20.00;20.00;;;;;;;;8734332;40;10362;-64
2021/08/09 09:05:20;;;;;;;;;17.25;17.25;;;;;;;;8746535;40;10336;-63
2021/08/09 09:11:22;;;;;;;;;14.75;13.75;;;;;;;;8741966;40;10618;-63
2021/08/09 09:17:39;;;;;;;;;15.75;15.75;;;;;;;;8740128;40;10597;-63
2021/08/09 09:23:42;;;;;;;;;19.00;17.75;;;;;;;;8740908;40;10411;-62
2021/08/09 09:29:45;;;;;;;;;15.25;14.00;;;;;;;;8744228;40;10370;-63
2021/08/09 09:35:51;;;;;;;;;9.25;9.00;;;;;;;;8745771;40;10325;-63
2021/08/09 09:41:56;;;;;;;;;15.25;14.25;;;;;;;;8746074;40;10404;-62
2021/08/09 09:48:16;;;;;;;;;12.75;12.25;;;;;;;;8743879;40;10850;-63
2021/08/09 09:54:19;;;;;;;;;13.25;13.00;;;;;;;;8737315;40;10566;-63
2021/08/09 10:00:24;;;;;;;;;16.25;16.00;;;;;;;;8743898;40;10560;-63
2021/08/09 10:06:27;;;;;;;;;20.50;19.25;;;;;;;;8745590;40;10438;-63
2021/08/09 10:12:30;;;;;;;;;16.50;16.50;;;;;;;;8743722;40;10362;-63
2021/08/09 10:18:36;;;;;;;;;21.50;17.00;;;;;;;;8744013;40;10294;-62
2021/08/09 10:24:41;;;;;;;;;20.50;15.25;;;;;;;;8743001;40;10444;-64
2021/08/09 10:30:44;;;;;;;;;19.00;19.00;;;;;;;;8740408;40;10405;-62
2021/08/09 10:37:07;;;;;;;;;14.50;14.50;;;;;;;;8743866;40;11520;-62
2021/08/09 10:43:10;;;;;;;;;23.75;21.00;;;;;;;;8742920;40;11073;-62
2021/08/09 10:49:38;;;;;;;;;16.50;16.50;;;;;;;;8744818;40;10506;-64
2021/08/09 10:55:40;;;;;;;;;15.75;15.75;;;;;;;;8738339;40;10497;-62
2021/08/09 11:01:58;;;;;;;;;17.00;16.00;;;;;;;;8745093;40;10560;-62
2021/08/09 11:08:15;;;;;;;;;15.50;13.00;;;;;;;;8743198;40;10421;-62
2021/08/09 11:14:19;;;;;;;;;13.50;13.50;;;;;;;;8730178;40;10382;-61
2021/08/09 11:20:25;;;;;;;;;18.50;16.75;;;;;;;;8744173;40;10368;-63
2021/08/09 11:26:28;;;;;;;;;13.50;13.50;;;;;;;;8746289;40;10524;-63
2021/08/09 11:32:41;;;;;;;;;13.25;13.25;;;;;;;;8741046;40;10429;-63
2021/08/09 11:38:54;;;;;;;;;10.75;10.75;;;;;;;;8745806;40;10234;-62
2021/08/09 11:44:56;;;;;;;;;12.75;12.25;;;;;;;;8747106;40;10915;-63
2021/08/09 11:51:05;;;;;;;;;12.25;12.25;;;;;;;;8738375;40;10545;-62
2021/08/09 11:57:19;;;;;;;;;9.00;8.75;;;;;;;;8730815;40;10285;-63
2021/08/09 12:03:22;;;;;;;;;11.50;11.50;;;;;;;;8732762;40;10263;-62
2021/08/09 12:09:38;;;;;;;;;11.50;9.75;;;;;;;;8741858;40;10330;-62
2021/08/09 12:15:41;;;;;;;;;9.75;9.25;;;;;;;;8745755;40;10254;-63
2021/08/09 12:21:43;;;;;;;;;15.50;12.25;;;;;;;;8744902;40;10363;-64
2021/08/09 12:27:45;;;;;;;;;16.50;14.75;;;;;;;;8746162;40;10526;-65
2021/08/09 12:34:05;;;;;;;;;8.75;8.00;;;;;;;;8740036;40;10856;-63
2021/08/09 12:40:10;;;;;;;;;12.00;9.50;;;;;;;;8745606;40;11258;-62
2021/08/09 12:46:13;;;;;;;;;11.00;11.00;;;;;;;;8740806;40;10250;-62
2021/08/09 12:52:15;;;;;;;;;11.00;11.00;;;;;;;;8750472;40;10578;-63
2021/08/09 12:58:17;;;;;;;;;11.50;11.00;;;;;;;;8748725;40;10258;-64
2021/08/09 13:04:20;;;;;;;;;11.50;10.75;;;;;;;;8749325;40;10399;-63
2021/08/09 13:10:22;;;;;;;;;12.00;12.00;;;;;;;;8746199;40;10387;-62
2021/08/09 13:16:25;;;;;;;;;12.50;12.50;;;;;;;;8749185;40;10351;-63
2021/08/09 13:22:29;;;;;;;;;14.50;12.50;;;;;;;;8747596;40;10426;-62
2021/08/09 13:28:35;;;;;;;;;13.00;11.25;;;;;;;;8748663;40;10326;-63
2021/08/09 13:34:37;;;;;;;;;11.75;10.75;;;;;;;;8746653;40;10404;-63
2021/08/09 13:40:40;;;;;;;;;15.75;14.00;;;;;;;;8747735;40;10650;-62
2021/08/09 13:46:42;;;;;;;;;12.00;12.00;;;;;;;;8752547;40;10359;-61
2021/08/09 13:52:44;;;;;;;;;10.00;10.00;;;;;;;;8774105;40;10355;-63
2021/08/09 13:58:46;;;;;;;;;14.00;14.00;;;;;;;;8773429;40;10243;-63
2021/08/09 14:04:48;;;;;;;;;11.75;11.75;;;;;;;;8772936;40;10486;-66
2021/08/09 14:10:51;;;;;;;;;15.00;15.00;;;;;;;;8772671;40;10294;-64
2021/08/09 14:16:53;;;;;;;;;10.25;10.25;;;;;;;;8751801;40;10486;-65
2021/08/09 14:22:58;;;;;;;;;11.00;11.00;;;;;;;;8734995;40;10761;-65
2021/08/09 14:29:00;;;;;;;;;15.00;13.00;;;;;;;;8748125;40;10569;-65
2021/08/09 14:35:05;;;;;;;;;15.25;15.25;;;;;;;;8740312;40;10409;-65
2021/08/09 14:41:13;;;;;;;;;12.00;11.50;;;;;;;;8740486;40;10305;-65
2021/08/09 14:47:16;;;;;;;;;14.75;13.75;;;;;;;;8746951;40;10986;-66
2021/08/09 14:53:19;;;;;;;;;11.25;10.75;;;;;;;;8756180;40;10258;-65
2021/08/09 14:59:22;;;;;;;;;11.75;11.75;;;;;;;;8764162;40;10229;-65
2021/08/09 15:05:25;;;;;;;;;14.00;14.00;;;;;;;;8765936;40;10584;-65
2021/08/09 15:11:32;;;;;;;;;12.75;12.75;;;;;;;;8761067;40;10561;-65
2021/08/09 15:17:36;;;;;;;;;12.75;11.75;;;;;;;;8741050;40;10618;-65
2021/08/09 15:23:38;;;;;;;;;14.50;14.50;;;;;;;;8749168;40;10558;-66
2021/08/09 15:29:42;;;;;;;;;10.25;10.25;;;;;;;;8751262;40;10413;-65
2021/08/09 15:35:44;;;;;;;;;12.50;12.50;;;;;;;;8749857;40;10535;-66
2021/08/09 15:41:46;;;;;;;;;11.00;11.00;;;;;;;;8748320;40;10564;-65
2021/08/09 15:47:48;;;;;;;;;10.00;9.50;;;;;;;;8749017;40;10227;-64
2021/08/09 15:53:55;;;;;;;;;13.00;13.00;;;;;;;;8772490;40;10385;-66
2021/08/09 15:59:57;;;;;;;;;14.75;12.00;;;;;;;;8765061;40;10451;-64
2021/08/09 16:05:59;;;;;;;;;14.25;11.00;;;;;;;;8759497;40;10405;-65
2021/08/09 16:12:02;;;;;;;;;15.50;15.50;;;;;;;;8751770;40;10474;-64
2021/08/09 16:18:04;;;;;;;;;13.50;13.50;;;;;;;;8745659;40;10550;-65
2021/08/09 16:24:07;;;;;;;;;15.50;14.50;;;;;;;;8740938;40;10483;-64
2021/08/09 16:30:09;;;;;;;;;13.25;13.25;;;;;;;;8750938;40;10996;-64
2021/08/09 16:36:11;;;;;;;;;13.25;13.25;;;;;;;;8742544;40;10362;-64
2021/08/09 16:42:14;;;;;;;;;16.25;16.25;;;;;;;;8742754;40;10563;-64
2021/08/09 16:48:16;;;;;;;;;16.25;15.00;;;;;;;;8752688;40;10451;-64
2021/08/09 16:54:18;;;;;;;;;17.00;16.00;;;;;;;;8751475;40;10574;-65
2021/08/09 17:00:20;;;;;;;;;23.50;20.00;;;;;;;;8752424;40;10296;-64
2021/08/09 17:06:23;;;;;;;;;15.25;15.00;;;;;;;;8742848;40;10543;-64
2021/08/09 17:12:26;;;;;;;;;19.50;17.50;;;;;;;;8742371;40;10373;-65
2021/08/09 17:18:28;;;;;;;;;14.75;14.50;;;;;;;;8742961;40;10472;-64
2021/08/09 17:24:30;;;;;;;;;18.00;16.75;;;;;;;;8750979;40;10375;-64
2021/08/09 17:30:33;;;;;;;;;20.50;20.50;;;;;;;;8751187;40;10263;-64
2021/08/09 17:36:35;;;;;;;;;23.50;20.25;;;;;;;;8751721;40;11035;-65
2021/08/09 17:42:37;;;;;;;;;21.50;21.50;;;;;;;;8750803;40;10541;-65
2021/08/09 17:48:40;;;;;;;;;18.75;17.25;;;;;;;;8751680;40;10530;-65
2021/08/09 17:54:42;;;;;;;;;25.25;20.25;;;;;;;;8749822;40;10367;-66
2021/08/09 18:00:44;;;;;;;;;20.00;19.75;;;;;;;;8750191;40;11256;-64
2021/08/09 18:06:46;;;;;;;;;23.25;22.25;;;;;;;;8751870;40;10369;-65
2021/08/09 18:12:48;;;;;;;;;20.50;20.50;;;;;;;;8751050;40;10977;-65
2021/08/09 18:18:51;;;;;;;;;22.50;20.50;;;;;;;;8752097;40;10537;-64
2021/08/09 18:24:54;;;;;;;;;20.25;20.00;;;;;;;;8740872;40;10396;-64
2021/08/09 18:30:56;;;;;;;;;25.25;23.50;;;;;;;;8750894;40;10557;-65
2021/08/09 18:36:59;;;;;;;;;22.00;22.00;;;;;;;;8751419;40;10417;-65
2021/08/09 18:43:01;;;;;;;;;26.00;25.75;;;;;;;;8750417;40;10372;-65
2021/08/09 18:49:03;;;;;;;;;23.25;21.25;;;;;;;;8751202;40;10489;-65
2021/08/09 18:55:06;;;;;;;;;24.25;21.50;;;;;;;;8749936;40;10942;-64
2021/08/09 19:01:08;;;;;;;;;23.00;23.00;;;;;;;;8749916;40;10370;-64
2021/08/09 19:07:10;;;;;;;;;21.00;20.50;;;;;;;;8750093;40;10356;-65
2021/08/09 19:13:13;;;;;;;;;26.75;26.75;;;;;;;;8749420;40;10407;-65
2021/08/09 19:19:15;;;;;;;;;26.50;25.25;;;;;;;;8750271;40;10620;-64
2021/08/09 19:25:17;;;;;;;;;21.25;20.25;;;;;;;;8748811;40;10445;-65
2021/08/09 19:31:20;;;;;;;;;24.50;21.50;;;;;;;;8749692;40;10511;-64
2021/08/09 19:37:22;;;;;;;;;24.50;24.25;;;;;;;;8749732;40;10295;-65
2021/08/09 19:43:27;;;;;;;;;28.75;27.25;;;;;;;;8748969;40;10518;-65
2021/08/09 19:49:29;;;;;;;;;28.00;24.00;;;;;;;;8741239;40;10590;-65
2021/08/09 19:55:31;;;;;;;;;27.50;27.50;;;;;;;;8749351;40;10437;-64
2021/08/09 20:01:33;;;;;;;;;25.00;24.50;;;;;;;;8748819;40;10233;-64
2021/08/09 20:07:35;;;;;;;;;32.00;28.25;;;;;;;;8750484;40;10421;-65
2021/08/09 20:13:38;;;;;;;;;31.00;28.25;;;;;;;;8748101;40;10391;-65
2021/08/09 20:19:40;;;;;;;;;30.00;26.75;;;;;;;;8749206;40;10720;-64
2021/08/09 20:25:42;;;;;;;;;27.00;25.00;;;;;;;;8749045;40;10975;-64
2021/08/09 20:31:44;;;;;;;;;26.25;25.75;;;;;;;;8748454;40;11008;-64
2021/08/09 20:37:47;;;;;;;;;22.00;17.75;;;;;;;;8748324;40;10563;-66
2021/08/09 20:43:51;;;;;;;;;18.50;18.50;;;;;;;;8739026;40;10401;-64
2021/08/09 20:49:53;;;;;;;;;17.75;17.75;;;;;;;;8753279;40;10397;-65
2021/08/09 20:55:55;;;;;;;;;18.75;18.75;;;;;;;;8751226;40;10374;-64
2021/08/09 21:01:58;;;;;;;;;19.50;19.50;;;;;;;;8752113;40;10281;-64
2021/08/09 21:08:03;;;;;;;;;21.00;20.25;;;;;;;;8752628;40;10565;-64
2021/08/09 21:14:05;;;;;;;;;19.50;18.25;;;;;;;;8751958;40;10437;-65
2021/08/09 21:20:08;;;;;;;;;21.25;19.75;;;;;;;;8752113;40;10502;-64
2021/08/09 21:26:11;;;;;;;;;20.00;18.50;;;;;;;;8741174;40;10661;-65
2021/08/09 21:32:13;;;;;;;;;23.25;21.00;;;;;;;;8741697;40;10337;-64
2021/08/09 21:38:15;;;;;;;;;21.75;20.00;;;;;;;;8751532;40;10802;-65
2021/08/09 21:44:17;;;;;;;;;22.25;19.00;;;;;;;;8750876;40;10541;-63
2021/08/09 21:50:19;;;;;;;;;16.75;16.75;;;;;;;;8751996;40;10289;-64
2021/08/09 21:56:23;;;;;;;;;17.50;17.25;;;;;;;;8750000;40;10588;-65
2021/08/09 22:02:25;;;;;;;;;19.00;18.50;;;;;;;;8750434;40;10329;-64
2021/08/09 22:08:27;;;;;;;;;19.25;17.25;;;;;;;;8750555;40;10726;-65
2021/08/09 22:14:30;;;;;;;;;18.00;16.75;;;;;;;;8749856;40;10479;-64
2021/08/09 22:20:32;;;;;;;;;19.50;16.75;;;;;;;;8750919;40;10483;-64
2021/08/09 22:26:35;;;;;;;;;20.00;17.75;;;;;;;;8750010;40;10393;-65
2021/08/09 22:32:37;;;;;;;;;21.00;20.75;;;;;;;;8751163;40;10458;-65
2021/08/09 22:38:41;;;;;;;;;24.25;19.75;;;;;;;;8751127;40;10575;-64
2021/08/09 22:44:44;;;;;;;;;17.50;17.50;;;;;;;;8740389;40;10571;-64
2021/08/09 22:50:46;;;;;;;;;23.25;21.50;;;;;;;;8750392;40;10363;-64
2021/08/09 22:56:48;;;;;;;;;19.00;17.25;;;;;;;;8749215;40;10647;-65
2021/08/09 23:02:53;;;;;;;;;21.75;20.25;;;;;;;;8750371;40;10453;-64
2021/08/09 23:08:55;;;;;;;;;22.75;21.25;;;;;;;;8749664;40;10570;-64
2021/08/09 23:14:59;;;;;;;;;21.50;20.25;;;;;;;;8749560;40;10641;-65
2021/08/09 23:21:01;;;;;;;;;21.50;20.75;;;;;;;;8750016;40;10793;-65
2021/08/09 23:27:04;;;;;;;;;22.75;20.50;;;;;;;;8749087;40;10814;-64
2021/08/09 23:33:06;;;;;;;;;20.75;20.75;;;;;;;;8749542;40;10849;-64
2021/08/09 23:39:08;;;;;;;;;25.25;19.25;;;;;;;;8748841;40;10615;-64
2021/08/09 23:45:11;;;;;;;;;25.25;22.00;;;;;;;;8748477;40;10936;-64
2021/08/09 23:51:14;;;;;;;;;19.75;19.25;;;;;;;;8749957;40;10660;-65
2021/08/09 23:57:16;;;;;;;;;21.75;19.50;;;;;;;;8748172;40;10754;-64
